sensor_id;sensor_type;location;lat;lon;timestamp;P1;durP1;ratioP1;P2;durP2;ratioP2
29006;SDS011;16104;48.642;9.008;2022-07-10T01:04:38;3.20;;;2.65;;
29006;SDS011;16104;48.642;9.008;2022-07-10T01:09:34;4.68;;;2.70;;
29006;SDS011;16104;48.642;9.008;2022-07-10T02:05:08;4.43;;;3.70;;
29006;SDS011;16104;48.642;9.008;2022-07-10T02:10:04;4.97;;;3.53;;
29006;SDS011;16104;48.642;9.008;2022-07-10T02:14:59;4.07;;;3.70;;
29006;SDS011;16104;48.642;9.008;2022-07-10T03:01:33;10.05;;;7.07;;
29006;SDS011;16104;48.642;9.008;2022-07-10T03:06:28;7.95;;;6.85;;
29006;SDS011;16104;48.642;9.008;2022-07-10T03:11:24;8.43;;;7.38;;
29006;SDS011;16104;48.642;9.008;2022-07-10T03:16:19;8.60;;;7.70;;
29006;SDS011;16104;48.642;9.008;2022-07-10T03:21:15;10.48;;;7.50;;
29006;SDS011;16104;48.642;9.008;2022-07-10T03:26:10;10.23;;;8.23;;
29006;SDS011;16104;48.642;9.008;2022-07-10T03:31:06;9.32;;;7.93;;
29006;SDS011;16104;48.642;9.008;2022-07-10T03:36:01;10.93;;;7.70;;
29006;SDS011;16104;48.642;9.008;2022-07-10T03:40:58;10.48;;;9.38;;
29006;SDS011;16104;48.642;9.008;2022-07-10T03:45:53;10.13;;;8.32;;
29006;SDS011;16104;48.642;9.008;2022-07-10T03:50:49;8.40;;;7.60;;
29006;SDS011;16104;48.642;9.008;2022-07-10T03:55:45;8.02;;;7.30;;
29006;SDS011;16104;48.642;9.008;2022-07-10T04:00:41;9.95;;;8.68;;
29006;SDS011;16104;48.642;9.008;2022-07-10T04:05:38;10.45;;;9.10;;
29006;SDS011;16104;48.642;9.008;2022-07-10T04:10:34;7.88;;;7.03;;
29006;SDS011;16104;48.642;9.008;2022-07-10T04:15:29;8.40;;;7.60;;
29006;SDS011;16104;48.642;9.008;2022-07-10T04:20:25;8.68;;;6.90;;
29006;SDS011;16104;48.642;9.008;2022-07-10T04:25:20;11.15;;;6.32;;
29006;SDS011;16104;48.642;9.008;2022-07-10T04:30:16;10.07;;;6.85;;
29006;SDS011;16104;48.642;9.008;2022-07-10T04:35:12;7.05;;;5.78;;
29006;SDS011;16104;48.642;9.008;2022-07-10T04:40:07;8.43;;;7.28;;
29006;SDS011;16104;48.642;9.008;2022-07-10T04:45:04;7.68;;;6.68;;
29006;SDS011;16104;48.642;9.008;2022-07-10T04:50:00;8.25;;;6.25;;
29006;SDS011;16104;48.642;9.008;2022-07-10T04:54:55;6.97;;;5.80;;
29006;SDS011;16104;48.642;9.008;2022-07-10T04:59:51;7.05;;;5.47;;
29006;SDS011;16104;48.642;9.008;2022-07-10T05:04:48;8.13;;;4.95;;
29006;SDS011;16104;48.642;9.008;2022-07-10T05:09:44;8.60;;;4.70;;
29006;SDS011;16104;48.642;9.008;2022-07-10T05:14:39;8.13;;;4.97;;
29006;SDS011;16104;48.642;9.008;2022-07-10T05:19:35;5.10;;;4.07;;
29006;SDS011;16104;48.642;9.008;2022-07-10T05:24:30;4.45;;;3.85;;
29006;SDS011;16104;48.642;9.008;2022-07-10T05:29:25;5.97;;;3.90;;
29006;SDS011;16104;48.642;9.008;2022-07-10T05:34:22;4.80;;;3.63;;
29006;SDS011;16104;48.642;9.008;2022-07-10T05:39:17;7.60;;;4.10;;
29006;SDS011;16104;48.642;9.008;2022-07-10T05:44:13;5.65;;;3.22;;
29006;SDS011;16104;48.642;9.008;2022-07-10T05:49:08;5.32;;;3.47;;
29006;SDS011;16104;48.642;9.008;2022-07-10T05:54:04;7.93;;;3.53;;
29006;SDS011;16104;48.642;9.008;2022-07-10T05:58:59;5.10;;;2.90;;
29006;SDS011;16104;48.642;9.008;2022-07-10T06:03:55;4.45;;;2.83;;
29006;SDS011;16104;48.642;9.008;2022-07-10T06:08:50;3.40;;;2.40;;
29006;SDS011;16104;48.642;9.008;2022-07-10T06:13:46;6.65;;;2.35;;
29006;SDS011;16104;48.642;9.008;2022-07-10T06:18:42;3.90;;;2.50;;
29006;SDS011;16104;48.642;9.008;2022-07-10T06:23:37;3.15;;;2.05;;
29006;SDS011;16104;48.642;9.008;2022-07-10T06:28:36;4.03;;;1.77;;
29006;SDS011;16104;48.642;9.008;2022-07-10T06:33:31;4.40;;;1.70;;
29006;SDS011;16104;48.642;9.008;2022-07-10T06:38:27;6.32;;;1.75;;
29006;SDS011;16104;48.642;9.008;2022-07-10T06:43:22;4.03;;;2.00;;
29006;SDS011;16104;48.642;9.008;2022-07-10T06:48:18;3.30;;;2.00;;
29006;SDS011;16104;48.642;9.008;2022-07-10T06:53:15;2.83;;;1.85;;
29006;SDS011;16104;48.642;9.008;2022-07-10T06:58:10;4.30;;;2.00;;
29006;SDS011;16104;48.642;9.008;2022-07-10T07:03:06;3.90;;;1.90;;
29006;SDS011;16104;48.642;9.008;2022-07-10T07:08:02;4.38;;;2.00;;
29006;SDS011;16104;48.642;9.008;2022-07-10T07:12:57;2.47;;;1.65;;
29006;SDS011;16104;48.642;9.008;2022-07-10T07:17:54;2.80;;;1.58;;
29006;SDS011;16104;48.642;9.008;2022-07-10T07:23:02;2.50;;;1.40;;
29006;SDS011;16104;48.642;9.008;2022-07-10T07:28:07;1.63;;;1.52;;
29006;SDS011;16104;48.642;9.008;2022-07-10T07:33:04;4.13;;;1.30;;
29006;SDS011;16104;48.642;9.008;2022-07-10T07:38:01;3.63;;;1.80;;
29006;SDS011;16104;48.642;9.008;2022-07-10T07:42:57;5.03;;;1.92;;
29006;SDS011;16104;48.642;9.008;2022-07-10T07:47:56;3.92;;;1.65;;
29006;SDS011;16104;48.642;9.008;2022-07-10T07:53:00;5.43;;;2.08;;
29006;SDS011;16104;48.642;9.008;2022-07-10T07:57:57;3.75;;;1.77;;
29006;SDS011;16104;48.642;9.008;2022-07-10T08:02:53;9.68;;;1.85;;
29006;SDS011;16104;48.642;9.008;2022-07-10T08:07:50;3.83;;;1.52;;
29006;SDS011;16104;48.642;9.008;2022-07-10T08:12:48;2.33;;;1.70;;
29006;SDS011;16104;48.642;9.008;2022-07-10T08:17:46;4.20;;;1.60;;
29006;SDS011;16104;48.642;9.008;2022-07-10T08:22:43;6.32;;;1.70;;
29006;SDS011;16104;48.642;9.008;2022-07-10T08:27:39;4.80;;;1.83;;
29006;SDS011;16104;48.642;9.008;2022-07-10T08:32:35;3.28;;;1.70;;
29006;SDS011;16104;48.642;9.008;2022-07-10T08:37:38;3.13;;;1.70;;
29006;SDS011;16104;48.642;9.008;2022-07-10T08:42:37;5.10;;;1.73;;
29006;SDS011;16104;48.642;9.008;2022-07-10T08:47:36;3.33;;;1.25;;
29006;SDS011;16104;48.642;9.008;2022-07-10T08:52:34;3.08;;;1.50;;
29006;SDS011;16104;48.642;9.008;2022-07-10T08:57:32;4.35;;;1.70;;
29006;SDS011;16104;48.642;9.008;2022-07-10T09:02:29;3.53;;;1.60;;
29006;SDS011;16104;48.642;9.008;2022-07-10T09:07:24;2.30;;;1.88;;
29006;SDS011;16104;48.642;9.008;2022-07-10T09:12:30;4.13;;;2.10;;
29006;SDS011;16104;48.642;9.008;2022-07-10T09:17:50;1.60;;;1.50;;
29006;SDS011;16104;48.642;9.008;2022-07-10T09:22:49;4.85;;;1.60;;
29006;SDS011;16104;48.642;9.008;2022-07-10T09:27:51;2.85;;;1.45;;
29006;SDS011;16104;48.642;9.008;2022-07-10T09:32:48;2.75;;;1.40;;
29006;SDS011;16104;48.642;9.008;2022-07-10T09:37:44;3.28;;;1.60;;
29006;SDS011;16104;48.642;9.008;2022-07-10T09:42:40;3.15;;;1.45;;
29006;SDS011;16104;48.642;9.008;2022-07-10T09:47:43;3.90;;;1.40;;
29006;SDS011;16104;48.642;9.008;2022-07-10T09:52:40;2.85;;;1.58;;
29006;SDS011;16104;48.642;9.008;2022-07-10T09:57:36;2.83;;;1.58;;
29006;SDS011;16104;48.642;9.008;2022-07-10T10:02:32;2.35;;;1.77;;
29006;SDS011;16104;48.642;9.008;2022-07-10T10:07:30;5.65;;;1.80;;
29006;SDS011;16104;48.642;9.008;2022-07-10T10:12:31;6.10;;;1.90;;
29006;SDS011;16104;48.642;9.008;2022-07-10T10:17:30;3.80;;;1.90;;
29006;SDS011;16104;48.642;9.008;2022-07-10T10:22:27;6.60;;;1.70;;
29006;SDS011;16104;48.642;9.008;2022-07-10T10:27:23;2.28;;;1.60;;
29006;SDS011;16104;48.642;9.008;2022-07-10T10:32:20;2.97;;;1.70;;
29006;SDS011;16104;48.642;9.008;2022-07-10T10:42:39;3.30;;;1.50;;
29006;SDS011;16104;48.642;9.008;2022-07-10T10:53:00;3.08;;;1.10;;
29006;SDS011;16104;48.642;9.008;2022-07-10T10:58:15;2.95;;;1.50;;
29006;SDS011;16104;48.642;9.008;2022-07-10T11:03:16;2.90;;;1.40;;
29006;SDS011;16104;48.642;9.008;2022-07-10T11:08:14;2.10;;;1.40;;
29006;SDS011;16104;48.642;9.008;2022-07-10T11:13:36;2.20;;;1.40;;
29006;SDS011;16104;48.642;9.008;2022-07-10T11:18:35;2.60;;;1.20;;
29006;SDS011;16104;48.642;9.008;2022-07-10T11:29:01;3.63;;;1.42;;
29006;SDS011;16104;48.642;9.008;2022-07-10T11:34:03;3.08;;;1.48;;
29006;SDS011;16104;48.642;9.008;2022-07-10T11:39:01;4.65;;;1.85;;
29006;SDS011;16104;48.642;9.008;2022-07-10T11:44:02;2.47;;;1.35;;
29006;SDS011;16104;48.642;9.008;2022-07-10T11:48:59;2.72;;;1.52;;
29006;SDS011;16104;48.642;9.008;2022-07-10T11:54:01;2.42;;;1.23;;
29006;SDS011;16104;48.642;9.008;2022-07-10T11:59:02;3.90;;;1.45;;
29006;SDS011;16104;48.642;9.008;2022-07-10T12:09:07;2.13;;;1.23;;
29006;SDS011;16104;48.642;9.008;2022-07-10T12:19:07;2.40;;;1.00;;
29006;SDS011;16104;48.642;9.008;2022-07-10T12:24:03;2.78;;;1.00;;
29006;SDS011;16104;48.642;9.008;2022-07-10T12:28:59;4.13;;;1.08;;
29006;SDS011;16104;48.642;9.008;2022-07-10T12:33:55;2.50;;;0.90;;
29006;SDS011;16104;48.642;9.008;2022-07-10T12:38:57;3.13;;;1.02;;
29006;SDS011;16104;48.642;9.008;2022-07-10T12:43:53;3.17;;;1.20;;
29006;SDS011;16104;48.642;9.008;2022-07-10T12:49:02;3.17;;;1.17;;
29006;SDS011;16104;48.642;9.008;2022-07-10T12:54:01;1.38;;;0.90;;
29006;SDS011;16104;48.642;9.008;2022-07-10T12:58:58;2.70;;;0.80;;
29006;SDS011;16104;48.642;9.008;2022-07-10T13:03:58;1.73;;;0.80;;
29006;SDS011;16104;48.642;9.008;2022-07-10T13:08:55;1.65;;;0.80;;
29006;SDS011;16104;48.642;9.008;2022-07-10T13:13:51;1.95;;;1.27;;
29006;SDS011;16104;48.642;9.008;2022-07-10T13:18:46;0.65;;;0.60;;
29006;SDS011;16104;48.642;9.008;2022-07-10T13:23:42;1.23;;;0.52;;
29006;SDS011;16104;48.642;9.008;2022-07-10T13:28:37;2.90;;;0.63;;
29006;SDS011;16104;48.642;9.008;2022-07-10T13:33:33;1.38;;;0.57;;
29006;SDS011;16104;48.642;9.008;2022-07-10T13:38:29;3.13;;;0.80;;
29006;SDS011;16104;48.642;9.008;2022-07-10T13:43:26;2.50;;;0.80;;
29006;SDS011;16104;48.642;9.008;2022-07-10T13:48:24;1.58;;;0.55;;
29006;SDS011;16104;48.642;9.008;2022-07-10T13:53:20;0.98;;;0.40;;
29006;SDS011;16104;48.642;9.008;2022-07-10T13:58:16;3.58;;;0.80;;
29006;SDS011;16104;48.642;9.008;2022-07-10T14:03:12;1.98;;;0.60;;
29006;SDS011;16104;48.642;9.008;2022-07-10T14:08:08;2.10;;;0.70;;
29006;SDS011;16104;48.642;9.008;2022-07-10T14:13:03;1.10;;;0.57;;
29006;SDS011;16104;48.642;9.008;2022-07-10T14:18:00;1.40;;;0.43;;
29006;SDS011;16104;48.642;9.008;2022-07-10T14:22:55;2.40;;;0.75;;
29006;SDS011;16104;48.642;9.008;2022-07-10T14:27:52;3.03;;;0.88;;
29006;SDS011;16104;48.642;9.008;2022-07-10T14:32:48;1.80;;;0.73;;
29006;SDS011;16104;48.642;9.008;2022-07-10T14:37:43;1.52;;;0.50;;
29006;SDS011;16104;48.642;9.008;2022-07-10T14:42:38;1.60;;;0.63;;
29006;SDS011;16104;48.642;9.008;2022-07-10T14:47:34;1.13;;;0.55;;
29006;SDS011;16104;48.642;9.008;2022-07-10T14:52:30;4.70;;;1.00;;
29006;SDS011;16104;48.642;9.008;2022-07-10T14:57:26;2.05;;;0.90;;
29006;SDS011;16104;48.642;9.008;2022-07-10T15:02:22;1.25;;;0.60;;
29006;SDS011;16104;48.642;9.008;2022-07-10T15:07:18;1.33;;;0.60;;
29006;SDS011;16104;48.642;9.008;2022-07-10T15:12:13;1.38;;;0.65;;
29006;SDS011;16104;48.642;9.008;2022-07-10T15:17:09;0.73;;;0.50;;
29006;SDS011;16104;48.642;9.008;2022-07-10T15:22:04;1.83;;;0.65;;
29006;SDS011;16104;48.642;9.008;2022-07-10T15:26:59;1.70;;;0.50;;
29006;SDS011;16104;48.642;9.008;2022-07-10T15:31:55;1.08;;;0.50;;
29006;SDS011;16104;48.642;9.008;2022-07-10T15:36:50;2.10;;;0.60;;
29006;SDS011;16104;48.642;9.008;2022-07-10T15:41:46;4.88;;;0.57;;
29006;SDS011;16104;48.642;9.008;2022-07-10T15:46:42;3.60;;;0.80;;
29006;SDS011;16104;48.642;9.008;2022-07-10T15:51:37;5.85;;;0.68;;
29006;SDS011;16104;48.642;9.008;2022-07-10T15:56:33;3.08;;;0.55;;
29006;SDS011;16104;48.642;9.008;2022-07-10T16:01:28;2.60;;;0.90;;
29006;SDS011;16104;48.642;9.008;2022-07-10T16:06:24;1.10;;;0.57;;
29006;SDS011;16104;48.642;9.008;2022-07-10T16:11:19;1.00;;;0.60;;
29006;SDS011;16104;48.642;9.008;2022-07-10T16:16:17;2.17;;;0.73;;
29006;SDS011;16104;48.642;9.008;2022-07-10T16:21:12;2.45;;;0.77;;
29006;SDS011;16104;48.642;9.008;2022-07-10T16:26:08;3.67;;;0.90;;
29006;SDS011;16104;48.642;9.008;2022-07-10T16:31:05;1.60;;;0.80;;
29006;SDS011;16104;48.642;9.008;2022-07-10T16:36:01;3.72;;;1.23;;
29006;SDS011;16104;48.642;9.008;2022-07-10T16:40:57;2.25;;;0.80;;
29006;SDS011;16104;48.642;9.008;2022-07-10T16:45:52;3.53;;;0.68;;
29006;SDS011;16104;48.642;9.008;2022-07-10T16:50:48;3.65;;;1.02;;
29006;SDS011;16104;48.642;9.008;2022-07-10T16:55:44;2.40;;;0.68;;
29006;SDS011;16104;48.642;9.008;2022-07-10T17:00:40;2.40;;;1.13;;
29006;SDS011;16104;48.642;9.008;2022-07-10T17:05:35;6.03;;;0.90;;
29006;SDS011;16104;48.642;9.008;2022-07-10T17:10:31;2.85;;;1.00;;
29006;SDS011;16104;48.642;9.008;2022-07-10T17:15:26;1.90;;;0.80;;
29006;SDS011;16104;48.642;9.008;2022-07-10T17:20:22;1.85;;;1.00;;
29006;SDS011;16104;48.642;9.008;2022-07-10T17:25:19;3.40;;;0.90;;
29006;SDS011;16104;48.642;9.008;2022-07-10T17:30:15;5.07;;;1.00;;
29006;SDS011;16104;48.642;9.008;2022-07-10T17:35:11;2.22;;;0.90;;
29006;SDS011;16104;48.642;9.008;2022-07-10T17:40:07;4.68;;;1.10;;
29006;SDS011;16104;48.642;9.008;2022-07-10T17:45:03;1.95;;;0.80;;
29006;SDS011;16104;48.642;9.008;2022-07-10T17:49:59;4.63;;;0.90;;
29006;SDS011;16104;48.642;9.008;2022-07-10T17:54:54;2.97;;;1.00;;
29006;SDS011;16104;48.642;9.008;2022-07-10T17:59:50;2.55;;;0.93;;
29006;SDS011;16104;48.642;9.008;2022-07-10T18:04:45;2.90;;;0.90;;
29006;SDS011;16104;48.642;9.008;2022-07-10T18:09:41;4.07;;;1.08;;
29006;SDS011;16104;48.642;9.008;2022-07-10T18:14:36;2.33;;;0.95;;
29006;SDS011;16104;48.642;9.008;2022-07-10T18:19:32;2.33;;;1.00;;
29006;SDS011;16104;48.642;9.008;2022-07-10T18:24:27;3.03;;;0.90;;
29006;SDS011;16104;48.642;9.008;2022-07-10T18:29:23;1.52;;;0.80;;
29006;SDS011;16104;48.642;9.008;2022-07-10T18:34:19;2.92;;;0.90;;
29006;SDS011;16104;48.642;9.008;2022-07-10T18:39:25;2.78;;;0.70;;
29006;SDS011;16104;48.642;9.008;2022-07-10T18:44:20;3.33;;;1.13;;
29006;SDS011;16104;48.642;9.008;2022-07-10T18:49:16;2.38;;;0.90;;
29006;SDS011;16104;48.642;9.008;2022-07-10T18:54:11;2.25;;;0.90;;
29006;SDS011;16104;48.642;9.008;2022-07-10T18:59:07;4.25;;;1.05;;
29006;SDS011;16104;48.642;9.008;2022-07-10T19:04:02;3.30;;;0.88;;
29006;SDS011;16104;48.642;9.008;2022-07-10T19:08:58;3.85;;;1.10;;
29006;SDS011;16104;48.642;9.008;2022-07-10T19:13:54;3.20;;;1.02;;
29006;SDS011;16104;48.642;9.008;2022-07-10T19:18:49;1.88;;;0.88;;
29006;SDS011;16104;48.642;9.008;2022-07-10T19:23:45;2.20;;;1.02;;
29006;SDS011;16104;48.642;9.008;2022-07-10T19:28:41;3.67;;;1.40;;
29006;SDS011;16104;48.642;9.008;2022-07-10T19:33:38;2.08;;;0.75;;
29006;SDS011;16104;48.642;9.008;2022-07-10T19:38:34;2.47;;;1.10;;
29006;SDS011;16104;48.642;9.008;2022-07-10T19:43:29;4.88;;;1.15;;
29006;SDS011;16104;48.642;9.008;2022-07-10T19:48:25;3.70;;;1.00;;
29006;SDS011;16104;48.642;9.008;2022-07-10T19:53:20;3.30;;;1.15;;
29006;SDS011;16104;48.642;9.008;2022-07-10T19:58:16;3.80;;;1.40;;
29006;SDS011;16104;48.642;9.008;2022-07-10T20:03:11;2.03;;;1.10;;
29006;SDS011;16104;48.642;9.008;2022-07-10T20:08:07;3.22;;;1.13;;
29006;SDS011;16104;48.642;9.008;2022-07-10T20:13:02;4.20;;;1.15;;
29006;SDS011;16104;48.642;9.008;2022-07-10T20:17:58;2.55;;;0.90;;
29006;SDS011;16104;48.642;9.008;2022-07-10T20:22:53;3.83;;;0.98;;
29006;SDS011;16104;48.642;9.008;2022-07-10T20:27:49;2.10;;;0.90;;
29006;SDS011;16104;48.642;9.008;2022-07-10T20:32:45;2.55;;;0.68;;
29006;SDS011;16104;48.642;9.008;2022-07-10T20:37:40;2.72;;;0.60;;
29006;SDS011;16104;48.642;9.008;2022-07-10T20:42:37;3.63;;;0.70;;
29006;SDS011;16104;48.642;9.008;2022-07-10T20:47:33;6.85;;;1.10;;
29006;SDS011;16104;48.642;9.008;2022-07-10T20:52:28;3.33;;;0.88;;
29006;SDS011;16104;48.642;9.008;2022-07-10T20:57:24;1.63;;;0.85;;
29006;SDS011;16104;48.642;9.008;2022-07-10T21:02:19;2.47;;;0.80;;
29006;SDS011;16104;48.642;9.008;2022-07-10T21:07:15;2.15;;;0.93;;
29006;SDS011;16104;48.642;9.008;2022-07-10T21:12:11;2.97;;;0.98;;
29006;SDS011;16104;48.642;9.008;2022-07-10T21:17:07;3.97;;;1.00;;
29006;SDS011;16104;48.642;9.008;2022-07-10T21:22:03;1.48;;;0.85;;
29006;SDS011;16104;48.642;9.008;2022-07-10T21:26:59;2.63;;;0.90;;
29006;SDS011;16104;48.642;9.008;2022-07-10T21:31:54;1.55;;;0.90;;
29006;SDS011;16104;48.642;9.008;2022-07-10T21:36:50;4.30;;;0.88;;
29006;SDS011;16104;48.642;9.008;2022-07-10T21:41:45;1.80;;;0.85;;
29006;SDS011;16104;48.642;9.008;2022-07-10T21:46:41;3.47;;;1.15;;
29006;SDS011;16104;48.642;9.008;2022-07-10T21:51:37;2.10;;;1.02;;
29006;SDS011;16104;48.642;9.008;2022-07-10T21:56:33;1.65;;;0.90;;
29006;SDS011;16104;48.642;9.008;2022-07-10T22:01:28;1.48;;;1.00;;
29006;SDS011;16104;48.642;9.008;2022-07-10T22:06:24;3.72;;;0.90;;
29006;SDS011;16104;48.642;9.008;2022-07-10T22:11:19;1.52;;;0.90;;
29006;SDS011;16104;48.642;9.008;2022-07-10T22:16:15;1.48;;;1.00;;
29006;SDS011;16104;48.642;9.008;2022-07-10T22:21:10;2.47;;;0.98;;
29006;SDS011;16104;48.642;9.008;2022-07-10T22:26:06;2.75;;;1.20;;
29006;SDS011;16104;48.642;9.008;2022-07-10T22:31:03;4.10;;;1.02;;
29006;SDS011;16104;48.642;9.008;2022-07-10T22:36:17;2.10;;;1.10;;
29006;SDS011;16104;48.642;9.008;2022-07-10T22:41:13;0.88;;;0.73;;
29006;SDS011;16104;48.642;9.008;2022-07-10T22:46:09;3.55;;;1.20;;
29006;SDS011;16104;48.642;9.008;2022-07-10T22:51:04;2.05;;;1.17;;
29006;SDS011;16104;48.642;9.008;2022-07-10T22:56:00;1.23;;;0.80;;
29006;SDS011;16104;48.642;9.008;2022-07-10T23:00:56;1.75;;;1.05;;
29006;SDS011;16104;48.642;9.008;2022-07-10T23:05:51;2.60;;;0.80;;
29006;SDS011;16104;48.642;9.008;2022-07-10T23:10:47;3.78;;;0.90;;
29006;SDS011;16104;48.642;9.008;2022-07-10T23:15:43;0.90;;;0.73;;
29006;SDS011;16104;48.642;9.008;2022-07-10T23:20:40;1.55;;;1.10;;
29006;SDS011;16104;48.642;9.008;2022-07-10T23:25:35;1.40;;;1.00;;
29006;SDS011;16104;48.642;9.008;2022-07-10T23:30:31;3.63;;;1.10;;
29006;SDS011;16104;48.642;9.008;2022-07-10T23:35:27;1.65;;;1.02;;
29006;SDS011;16104;48.642;9.008;2022-07-10T23:40:22;2.45;;;1.00;;
29006;SDS011;16104;48.642;9.008;2022-07-10T23:45:18;2.30;;;1.10;;
29006;SDS011;16104;48.642;9.008;2022-07-10T23:50:13;2.78;;;1.10;;
29006;SDS011;16104;48.642;9.008;2022-07-10T23:55:09;3.20;;;1.00;;
